createdAt,value
2023-02-26T00:01:41.138Z,98127.29
2023-02-26T00:04:43.018Z,98129.27
2023-02-26T00:07:44.841Z,98132.13
2023-02-26T00:10:46.375Z,98133.09
2023-02-26T00:13:49.180Z,98150.41
2023-02-26T00:17:17.956Z,98159.29
2023-02-26T00:20:19.898Z,98158.88
2023-02-26T00:23:22.173Z,98156.48
2023-02-26T00:26:26.419Z,98157.36
2023-02-26T00:29:28.628Z,98164.22
2023-02-26T00:32:32.182Z,98167.97
2023-02-26T00:35:34.358Z,98174.45
2023-02-26T00:38:36.583Z,98179.91
2023-02-26T00:41:38.496Z,98181.95
2023-02-26T00:44:41.140Z,98186.02
2023-02-26T00:48:20.825Z,98188.93
2023-02-26T00:51:32.106Z,98199.16
2023-02-26T00:54:33.767Z,98210.70
2023-02-26T00:57:35.510Z,98214.80
2023-02-26T01:00:37.109Z,98213.98
2023-02-26T01:03:39.096Z,98216.89
2023-02-26T01:06:45.078Z,98214.70
2023-02-26T01:09:47.106Z,98212.66
2023-02-26T01:12:49.454Z,98207.94
2023-02-26T01:15:57.151Z,98205.56
2023-02-26T01:19:18.593Z,98209.15
2023-02-26T01:22:24.512Z,98208.14
2023-02-26T01:25:51.986Z,98206.46
2023-02-26T01:28:58.737Z,98205.48
2023-02-26T01:32:08.200Z,98200.25
2023-02-26T01:35:23.899Z,98194.83
2023-02-26T01:39:00.058Z,98199.27
2023-02-26T01:42:23.832Z,98196.23
2023-02-26T01:45:37.103Z,98187.94
2023-02-26T01:48:48.289Z,98184.94
2023-02-26T01:52:01.526Z,98184.99
2023-02-26T01:55:05.541Z,98196.63
2023-02-26T01:58:07.105Z,98202.29
2023-02-26T02:01:08.834Z,98217.32
2023-02-26T02:04:12.037Z,98233.71
2023-02-26T02:07:14.127Z,98245.48
2023-02-26T02:10:16.335Z,98258.25
2023-02-26T02:13:36.581Z,98264.89
2023-02-26T02:16:53.636Z,98269.14
2023-02-26T02:20:10.713Z,98274.95
2023-02-26T02:23:15.684Z,98273.94
2023-02-26T02:26:39.359Z,98268.88
2023-02-26T02:30:03.534Z,98257.66
2023-02-26T02:33:18.305Z,98256.85
2023-02-26T02:36:39.024Z,98266.81
2023-02-26T02:39:45.069Z,98274.15
2023-02-26T02:43:02.556Z,98285.41
2023-02-26T02:46:07.980Z,98291.20
2023-02-26T02:50:05.228Z,98300.08
2023-02-26T02:53:21.432Z,98301.09
2023-02-26T02:56:30.433Z,98312.16
2023-02-26T02:59:42.779Z,98314.73
2023-02-26T03:03:01.306Z,98311.70
2023-02-26T03:06:03.720Z,98308.00
2023-02-26T03:09:06.372Z,98307.23
2023-02-26T03:12:08.087Z,98310.20
2023-02-26T03:15:10.255Z,98305.16
2023-02-26T03:18:35.071Z,98305.95
2023-02-26T03:21:49.663Z,98304.91
2023-02-26T03:24:52.158Z,98304.02
2023-02-26T03:28:23.779Z,98313.50
2023-02-26T03:31:32.233Z,98316.33
2023-02-26T03:34:57.741Z,98335.12
2023-02-26T03:38:03.358Z,98355.63
2023-02-26T03:41:13.192Z,98363.67
2023-02-26T03:44:34.740Z,98366.95
2023-02-26T03:47:36.733Z,98377.87
2023-02-26T03:50:44.664Z,98378.42
2023-02-26T03:53:54.327Z,98383.56
2023-02-26T03:56:56.115Z,98384.08
2023-02-26T03:59:58.178Z,98384.27
2023-02-26T04:03:08.870Z,98380.58
2023-02-26T04:06:11.981Z,98377.20
2023-02-26T04:09:16.084Z,98376.89
2023-02-26T04:12:22.717Z,98383.71
2023-02-26T04:15:24.374Z,98396.16
2023-02-26T04:18:26.152Z,98411.48
2023-02-26T04:21:27.952Z,98426.13
2023-02-26T04:24:29.624Z,98442.98
2023-02-26T04:27:31.132Z,98455.25
2023-02-26T04:30:32.967Z,98461.92
2023-02-26T04:33:34.562Z,98465.04
2023-02-26T04:36:36.140Z,98477.39
2023-02-26T04:39:37.675Z,98476.79
2023-02-26T04:42:39.423Z,98477.61
2023-02-26T04:45:41.191Z,98478.43
2023-02-26T04:48:42.873Z,98482.98
2023-02-26T04:51:44.539Z,98482.10
2023-02-26T04:54:46.399Z,98485.10
2023-02-26T04:57:47.965Z,98490.73
2023-02-26T05:00:51.464Z,98486.31
2023-02-26T05:03:53.144Z,98485.58
2023-02-26T05:06:54.741Z,98489.97
2023-02-26T05:09:56.341Z,98482.47
2023-02-26T05:12:58.532Z,98482.49
2023-02-26T05:16:00.221Z,98490.83
2023-02-26T05:19:01.871Z,98497.88
2023-02-26T05:22:03.481Z,98513.33
2023-02-26T05:25:06.413Z,98515.20
2023-02-26T05:28:08.034Z,98522.68
2023-02-26T05:31:09.798Z,98528.52
2023-02-26T05:34:11.537Z,98519.77
2023-02-26T05:37:13.248Z,98515.72
2023-02-26T05:40:14.792Z,98522.27
2023-02-26T05:43:16.459Z,98516.91
2023-02-26T05:46:19.129Z,98520.58
2023-02-26T05:49:24.127Z,98528.00
2023-02-26T05:55:31.818Z,98552.84
2023-02-26T05:58:33.489Z,98564.41
2023-02-26T06:01:35.915Z,98572.88
2023-02-26T06:04:37.503Z,98588.35
2023-02-26T06:07:39.221Z,98594.13
2023-02-26T06:10:40.942Z,98605.86
2023-02-26T06:13:42.630Z,98613.84
2023-02-26T06:16:44.409Z,98623.52
2023-02-26T06:19:46.027Z,98619.63
2023-02-26T06:22:47.633Z,98626.91
2023-02-26T06:25:51.305Z,98631.84
2023-02-26T06:28:52.997Z,98637.11
2023-02-26T06:31:54.627Z,98645.44
2023-02-26T06:34:56.267Z,98649.69
2023-02-26T06:37:58.135Z,98653.60
2023-02-26T06:40:59.991Z,98653.27
2023-02-26T06:44:01.559Z,98654.30
2023-02-26T06:47:03.218Z,98658.88
2023-02-26T06:50:05.739Z,98661.73
2023-02-26T06:53:07.420Z,98657.80
2023-02-26T06:56:09.026Z,98660.16
2023-02-26T06:59:10.983Z,98669.12
2023-02-26T07:02:17.711Z,98677.25
2023-02-26T07:05:19.810Z,98688.08
2023-02-26T07:08:21.394Z,98695.35
2023-02-26T07:11:23.112Z,98694.60
2023-02-26T07:14:24.735Z,98700.35
2023-02-26T07:17:26.522Z,98702.18
2023-02-26T07:20:28.588Z,98703.33
2023-02-26T07:23:30.504Z,98701.73
2023-02-26T07:26:32.843Z,98707.27
2023-02-26T07:29:34.469Z,98708.04
2023-02-26T07:32:36.225Z,98710.48
2023-02-26T07:35:38.553Z,98715.95
2023-02-26T07:38:40.218Z,98718.73
2023-02-26T07:41:41.962Z,98726.40
2023-02-26T07:44:43.690Z,98728.81
2023-02-26T07:47:45.218Z,98732.42
2023-02-26T07:50:47.483Z,98735.42
2023-02-26T07:53:49.067Z,98738.52
2023-02-26T07:56:51.473Z,98748.69
2023-02-26T07:59:52.994Z,98762.91
2023-02-26T08:02:54.597Z,98770.77
2023-02-26T08:05:56.200Z,98771.69
2023-02-26T08:08:57.790Z,98778.84
2023-02-26T08:11:59.335Z,98784.77
2023-02-26T08:15:00.910Z,98789.05
2023-02-26T08:18:02.453Z,98795.61
2023-02-26T08:21:04.470Z,98802.70
2023-02-26T08:24:07.212Z,98807.45
2023-02-26T08:27:08.839Z,98813.14
2023-02-26T08:30:11.169Z,98812.19
2023-02-26T08:33:12.743Z,98816.79
2023-02-26T08:36:14.388Z,98817.44
2023-02-26T08:39:16.168Z,98819.52
2023-02-26T08:42:17.621Z,98824.98
2023-02-26T08:45:19.146Z,98831.92
2023-02-26T08:48:20.989Z,98837.34
2023-02-26T08:51:22.712Z,98843.58
2023-02-26T08:54:24.658Z,98846.88
2023-02-26T08:57:26.169Z,98850.64
2023-02-26T09:00:28.041Z,98857.58
2023-02-26T09:03:29.774Z,98860.40
2023-02-26T09:06:31.675Z,98870.34
2023-02-26T09:09:33.323Z,98873.13
2023-02-26T09:12:35.166Z,98882.26
2023-02-26T09:15:36.665Z,98879.95
2023-02-26T09:18:38.270Z,98882.58
2023-02-26T09:21:39.850Z,98890.20
2023-02-26T09:24:41.697Z,98890.69
2023-02-26T09:27:43.322Z,98895.83
2023-02-26T09:30:44.897Z,98899.78
2023-02-26T09:33:46.560Z,98911.08
2023-02-26T09:36:48.350Z,98917.23
2023-02-26T09:39:49.892Z,98919.44
2023-02-26T09:43:39.974Z,98922.60
2023-02-26T09:46:51.884Z,98926.41
2023-02-26T09:50:11.712Z,98924.31
2023-02-26T09:53:28.512Z,98931.15
2023-02-26T09:56:34.179Z,98932.27
2023-02-26T09:59:35.781Z,98930.19
2023-02-26T10:02:51.628Z,98937.00
2023-02-26T10:05:59.489Z,98937.48
2023-02-26T10:09:20.648Z,98935.94
2023-02-26T10:12:27.690Z,98942.87
2023-02-26T10:15:37.564Z,98948.38
2023-02-26T10:18:51.994Z,98952.80
2023-02-26T10:22:24.259Z,98956.86
2023-02-26T10:25:31.509Z,98957.86
2023-02-26T10:29:04.944Z,98959.33
2023-02-26T10:32:25.241Z,98961.03
2023-02-26T10:35:28.386Z,98965.92
2023-02-26T10:38:31.528Z,98970.13
2023-02-26T10:41:36.758Z,98973.05
2023-02-26T10:44:56.625Z,98973.07
2023-02-26T10:48:10.139Z,98979.55
2023-02-26T10:51:38.670Z,98987.79
2023-02-26T10:55:18.969Z,98993.84
2023-02-26T10:58:24.164Z,98998.67
2023-02-26T11:01:27.780Z,99006.84
2023-02-26T11:04:29.748Z,99009.67
2023-02-26T11:07:32.489Z,99007.41
2023-02-26T11:10:55.467Z,99018.39
2023-02-26T11:13:57.309Z,99023.87
2023-02-26T11:17:02.232Z,99020.79
2023-02-26T11:20:14.439Z,99023.29
2023-02-26T11:23:21.178Z,99024.91
2023-02-26T11:26:27.325Z,99032.00
2023-02-26T11:29:35.917Z,99032.83
2023-02-26T11:32:38.189Z,99030.63
2023-02-26T11:35:39.871Z,99030.33
2023-02-26T11:38:45.080Z,99030.73
2023-02-26T11:41:48.285Z,99032.70
2023-02-26T11:44:51.237Z,99037.91
2023-02-26T11:48:02.131Z,99052.39
2023-02-26T11:51:05.167Z,99059.12
2023-02-26T11:54:20.645Z,99061.54
2023-02-26T11:57:26.991Z,99056.80
2023-02-26T12:00:36.598Z,99056.21
2023-02-26T12:03:41.093Z,99062.57
2023-02-26T12:06:50.788Z,99072.15
2023-02-26T12:09:52.686Z,99075.02
2023-02-26T12:13:08.482Z,99078.60
2023-02-26T12:16:27.207Z,99077.30
2023-02-26T12:19:42.679Z,99083.45
2023-02-26T12:22:49.112Z,99083.64
2023-02-26T12:26:03.133Z,99092.90
2023-02-26T12:29:18.372Z,99099.54
2023-02-26T12:33:18.912Z,99105.42
2023-02-26T12:36:28.255Z,99110.07
2023-02-26T12:40:12.221Z,99115.69
2023-02-26T12:43:35.492Z,99119.15
2023-02-26T12:46:58.969Z,99122.77
2023-02-26T12:50:19.664Z,99125.38
2023-02-26T12:53:33.283Z,99126.46
2023-02-26T12:57:06.126Z,99132.48
2023-02-26T13:00:14.495Z,99139.52
2023-02-26T13:03:54.019Z,99146.23
2023-02-26T13:07:07.931Z,99153.18
2023-02-26T13:10:19.464Z,99158.30
2023-02-26T13:13:39.027Z,99167.31
2023-02-26T13:17:01.519Z,99176.51
2023-02-26T13:20:11.992Z,99179.45
2023-02-26T13:23:17.950Z,99180.21
2023-02-26T13:26:21.201Z,99188.19
2023-02-26T13:29:30.541Z,99196.63
2023-02-26T13:32:34.201Z,99196.56
2023-02-26T13:35:40.481Z,99195.67
2023-02-26T13:39:00.983Z,99208.70
2023-02-26T13:42:22.439Z,99216.98
2023-02-26T13:45:34.910Z,99216.18
2023-02-26T13:49:14.035Z,99219.96
2023-02-26T13:52:30.559Z,99227.68
2023-02-26T13:55:46.906Z,99226.25
2023-02-26T13:58:54.832Z,99232.84
2023-02-26T14:02:02.643Z,99236.16
2023-02-26T14:05:11.197Z,99237.29
2023-02-26T14:08:27.376Z,99241.07
2023-02-26T14:11:53.827Z,99253.55
2023-02-26T14:14:58.665Z,99260.07
2023-02-26T14:18:03.893Z,99267.63
2023-02-26T14:21:28.027Z,99267.85
2023-02-26T14:24:36.491Z,99268.77
2023-02-26T14:27:41.764Z,99271.66
2023-02-26T14:30:50.158Z,99271.17
2023-02-26T14:34:13.682Z,99270.67
2023-02-26T14:37:19.923Z,99265.63
2023-02-26T14:40:22.313Z,99267.52
2023-02-26T14:43:50.922Z,99268.27
2023-02-26T14:46:53.410Z,99274.61
2023-02-26T14:49:54.984Z,99272.05
2023-02-26T14:53:21.827Z,99273.26
2023-02-26T14:56:48.091Z,99273.73
2023-02-26T15:00:07.892Z,99277.30
2023-02-26T15:03:39.734Z,99282.59
2023-02-26T15:07:00.134Z,99287.55
2023-02-26T15:10:24.721Z,99287.92
2023-02-26T15:13:48.347Z,99297.15
2023-02-26T15:17:08.507Z,99303.48
2023-02-26T15:20:21.865Z,99321.89
2023-02-26T15:23:33.426Z,99320.08
2023-02-26T15:26:36.349Z,99319.24
2023-02-26T15:29:39.128Z,99320.30
2023-02-26T15:32:41.138Z,99325.42
2023-02-26T15:35:43.444Z,99325.95
2023-02-26T15:38:49.756Z,99336.34
2023-02-26T15:41:53.113Z,99334.67
2023-02-26T15:44:57.327Z,99345.41
2023-02-26T15:48:02.204Z,99353.94
2023-02-26T15:51:06.410Z,99356.20
2023-02-26T15:54:15.627Z,99364.73
2023-02-26T15:57:18.521Z,99374.15
2023-02-26T16:00:21.940Z,99375.55
2023-02-26T16:03:29.047Z,99379.31
2023-02-26T16:06:35.060Z,99389.02
2023-02-26T16:09:40.330Z,99394.33
2023-02-26T16:12:43.476Z,99399.27
2023-02-26T16:15:45.167Z,99402.20
2023-02-26T16:18:46.704Z,99411.70
2023-02-26T16:21:49.545Z,99423.80
2023-02-26T16:24:55.390Z,99427.02
2023-02-26T16:28:05.748Z,99438.23
2023-02-26T16:31:16.233Z,99437.56
2023-02-26T16:34:27.820Z,99439.09
2023-02-26T16:37:29.465Z,99448.61
2023-02-26T16:40:35.725Z,99457.08
2023-02-26T16:43:46.636Z,99462.70
2023-02-26T16:46:50.645Z,99461.52
2023-02-26T16:49:52.335Z,99467.15
2023-02-26T16:53:05.797Z,99476.02
2023-02-26T16:56:07.726Z,99486.71
2023-02-26T16:59:13.846Z,99494.86
2023-02-26T17:02:24.476Z,99498.77
2023-02-26T17:05:30.455Z,99506.41
2023-02-26T17:08:46.367Z,99516.59
2023-02-26T17:11:48.453Z,99524.24
2023-02-26T17:14:54.920Z,99530.18
2023-02-26T17:17:56.836Z,99530.70
2023-02-26T17:20:58.719Z,99529.00
2023-02-26T17:24:00.546Z,99525.95
2023-02-26T17:27:04.770Z,99519.98
2023-02-26T17:30:08.591Z,99517.79
2023-02-26T17:33:13.494Z,99518.29
2023-02-26T17:36:17.111Z,99523.23
2023-02-26T17:39:19.086Z,99532.55
2023-02-26T17:42:20.899Z,99541.23
2023-02-26T17:45:22.475Z,99538.34
2023-02-26T17:48:24.494Z,99549.90
2023-02-26T17:51:30.493Z,99558.40
2023-02-26T17:54:32.944Z,99559.09
2023-02-26T17:57:34.536Z,99564.18
2023-02-26T18:00:36.143Z,99553.83
2023-02-26T18:03:38.276Z,99553.64
2023-02-26T18:06:39.973Z,99553.14
2023-02-26T18:09:43.051Z,99545.83
2023-02-26T18:12:44.774Z,99541.92
2023-02-26T18:15:46.552Z,99542.61
2023-02-26T18:18:49.100Z,99541.24
2023-02-26T18:21:50.986Z,99540.22
2023-02-26T18:24:52.548Z,99543.12
2023-02-26T18:27:55.873Z,99553.14
2023-02-26T18:30:57.956Z,99558.74
2023-02-26T18:34:00.965Z,99564.85
2023-02-26T18:37:02.757Z,99565.71
2023-02-26T18:40:04.436Z,99562.30
2023-02-26T18:43:05.926Z,99560.78
2023-02-26T18:46:09.359Z,99566.56
2023-02-26T18:49:18.799Z,99573.19
2023-02-26T18:52:20.490Z,99584.58
2023-02-26T18:55:22.125Z,99587.80
2023-02-26T18:58:23.851Z,99597.81
2023-02-26T19:01:25.585Z,99603.08
2023-02-26T19:04:27.684Z,99612.77
2023-02-26T19:07:29.362Z,99618.20
2023-02-26T19:10:31.024Z,99626.70
2023-02-26T19:13:32.775Z,99627.70
2023-02-26T19:16:34.545Z,99630.78
2023-02-26T19:19:36.118Z,99638.26
2023-02-26T19:22:37.819Z,99649.30
2023-02-26T19:25:42.405Z,99648.61
2023-02-26T19:28:44.239Z,99641.81
2023-02-26T19:31:46.303Z,99639.45
2023-02-26T19:34:47.997Z,99637.38
2023-02-26T19:37:49.604Z,99643.15
2023-02-26T19:40:51.332Z,99642.80
2023-02-26T19:43:52.941Z,99638.40
2023-02-26T19:46:55.045Z,99643.48
2023-02-26T19:49:56.610Z,99650.11
2023-02-26T19:52:58.168Z,99656.75
2023-02-26T19:55:59.736Z,99664.38
2023-02-26T19:59:01.377Z,99667.79
2023-02-26T20:02:03.057Z,99665.91
2023-02-26T20:05:05.130Z,99674.73
2023-02-26T20:08:06.812Z,99678.97
2023-02-26T20:11:08.746Z,99681.34
2023-02-26T20:14:10.525Z,99680.17
2023-02-26T20:17:12.029Z,99683.90
2023-02-26T20:20:13.806Z,99684.22
2023-02-26T20:23:15.346Z,99688.63
2023-02-26T20:26:17.191Z,99688.30
2023-02-26T20:29:21.683Z,99692.55
2023-02-26T20:32:23.686Z,99698.51
2023-02-26T20:35:25.390Z,99699.54
2023-02-26T20:38:27.246Z,99699.86
2023-02-26T20:41:29.018Z,99702.05
2023-02-26T20:44:30.751Z,99703.06
2023-02-26T20:47:32.390Z,99701.87
2023-02-26T20:50:34.995Z,99704.06
2023-02-26T20:53:36.673Z,99704.77
2023-02-26T20:56:38.484Z,99706.78
2023-02-26T20:59:39.973Z,99713.40
2023-02-26T21:02:42.750Z,99715.27
2023-02-26T21:05:44.394Z,99720.55
2023-02-26T21:08:46.021Z,99721.06
2023-02-26T21:11:47.602Z,99717.82
2023-02-26T21:14:51.617Z,99723.57
2023-02-26T21:17:53.360Z,99723.23
2023-02-26T21:20:55.058Z,99722.91
2023-02-26T21:23:57.476Z,99720.94
2023-02-26T21:26:59.199Z,99720.23
2023-02-26T21:30:00.874Z,99720.88
2023-02-26T21:33:02.582Z,99721.71
2023-02-26T21:36:04.338Z,99727.02
2023-02-26T21:39:06.020Z,99733.50
2023-02-26T21:42:08.841Z,99737.41
2023-02-26T21:45:11.031Z,99745.59
2023-02-26T21:48:12.713Z,99748.66
2023-02-26T21:51:14.374Z,99749.86
2023-02-26T21:54:16.129Z,99752.25
2023-02-26T21:57:17.861Z,99753.45
2023-02-26T22:00:20.023Z,99755.48
2023-02-26T22:03:21.774Z,99756.85
2023-02-26T22:06:23.558Z,99759.91
2023-02-26T22:09:25.309Z,99760.60
2023-02-26T22:12:27.053Z,99761.11
2023-02-26T22:15:28.797Z,99763.48
2023-02-26T22:18:30.566Z,99754.80
2023-02-26T22:21:32.347Z,99757.71
2023-02-26T22:24:33.909Z,99761.95
2023-02-26T22:27:35.953Z,99763.98
2023-02-26T22:30:37.522Z,99769.61
2023-02-26T22:33:39.300Z,99771.30
2023-02-26T22:36:40.857Z,99769.42
2023-02-26T22:39:42.435Z,99772.64
2023-02-26T22:42:44.378Z,99772.48
2023-02-26T22:45:46.202Z,99775.86
2023-02-26T22:48:47.929Z,99777.58
2023-02-26T22:51:49.457Z,99778.93
2023-02-26T22:54:51.043Z,99783.17
2023-02-26T22:57:52.731Z,99783.18
2023-02-26T23:01:02.028Z,99788.12
2023-02-26T23:04:03.766Z,99792.52
2023-02-26T23:07:05.470Z,99793.72
2023-02-26T23:10:09.636Z,99795.93
2023-02-26T23:13:11.190Z,99794.55
2023-02-26T23:16:12.967Z,99796.60
2023-02-26T23:19:14.573Z,99797.10
2023-02-26T23:22:16.582Z,99801.84
2023-02-26T23:25:18.389Z,99803.89
2023-02-26T23:28:20.502Z,99803.88
2023-02-26T23:31:22.269Z,99809.65
2023-02-26T23:34:23.793Z,99813.55
2023-02-26T23:37:25.908Z,99814.56
2023-02-26T23:40:27.665Z,99809.96
2023-02-26T23:43:29.392Z,99810.98
2023-02-26T23:46:31.122Z,99811.66
2023-02-26T23:49:32.678Z,99818.27
2023-02-26T23:52:34.510Z,99817.07
2023-02-26T23:55:36.135Z,99822.15
2023-02-26T23:58:37.756Z,99824.02
